Time;durP1;ratioP1;P1;durP2;ratioP2;P2;SDS_P1;SDS_P2;PMS_P1;PMS_P2;Temp;Humidity;BMP_temperature;BMP_pressure;BME280_temperature;BME280_humidity;BME280_pressure;Samples;Min_cycle;Max_cycle;Signal;HPM_P1;HPM_P2
2022/09/24 00:01:40;;;;;;;;;10.33;8.00;;;;;17.75;100.00;101006.31;5011912;28;45399;-73
2022/09/24 00:04:08;;;;;;;;;7.00;7.00;;;;;17.80;100.00;101015.13;5016933;28;45226;-70
2022/09/24 00:06:45;;;;;;;;;11.67;8.67;;;;;17.81;100.00;101014.22;4998012;28;46748;-71
2022/09/24 00:09:12;;;;;;;;;8.00;8.00;;;;;17.80;100.00;101021.34;5005530;28;45392;-71
2022/09/24 00:11:38;;;;;;;;;8.33;7.67;;;;;17.78;100.00;101009.78;5015614;28;45290;-71
2022/09/24 00:14:05;;;;;;;;;10.67;9.67;;;;;17.75;100.00;101008.97;5009977;28;45187;-72
2022/09/24 00:16:33;;;;;;;;;10.67;9.00;;;;;17.69;100.00;100998.38;5011692;28;46832;-70
2022/09/24 00:18:59;;;;;;;;;11.00;8.00;;;;;17.69;100.00;100999.25;5004695;28;45411;-72
2022/09/24 00:21:30;;;;;;;;;11.00;8.00;;;;;17.72;100.00;100996.53;4994837;28;45518;-72
2022/09/24 00:24:00;;;;;;;;;10.67;9.00;;;;;17.67;100.00;100986.81;5015683;28;45273;-73
2022/09/24 00:29:12;;;;;;;;;13.33;10.33;;;;;17.72;100.00;100992.94;5015754;28;45441;-70
2022/09/24 00:31:38;;;;;;;;;10.67;9.00;;;;;17.70;100.00;100987.66;5010089;28;45324;-72
2022/09/24 00:34:03;;;;;;;;;8.67;8.33;;;;;17.71;100.00;100989.41;5007358;28;45227;-72
2022/09/24 00:36:29;;;;;;;;;6.33;6.00;;;;;17.74;100.00;101000.09;5015475;28;67059;-72
2022/09/24 00:38:57;;;;;;;;;9.33;8.00;;;;;17.74;100.00;101000.09;4998306;28;45297;-72
2022/09/24 00:41:25;;;;;;;;;8.67;8.33;;;;;17.74;100.00;100994.75;5015067;28;45332;-71
2022/09/24 00:43:51;;;;;;;;;8.00;8.00;;;;;17.67;100.00;100987.69;5014875;28;45385;-72
2022/09/24 00:46:21;;;;;;;;;5.00;5.00;;;;;17.74;100.00;100999.22;5014343;28;65663;-72
2022/09/24 00:48:47;;;;;;;;;8.33;7.67;;;;;17.74;100.00;101001.88;4994740;28;45451;-71
2022/09/24 00:51:17;;;;;;;;;9.00;8.00;;;;;17.70;100.00;100997.44;5012527;28;45487;-71
2022/09/24 00:53:45;;;;;;;;;9.00;7.67;;;;;17.73;100.00;101000.09;5014521;28;45522;-72
2022/09/24 00:56:14;;;;;;;;;8.00;8.00;;;;;17.70;100.00;100995.66;4994927;28;46774;-72
2022/09/24 00:58:42;;;;;;;;;9.33;9.33;;;;;17.70;100.00;100992.13;5016015;28;45364;-71
2022/09/24 01:01:07;;;;;;;;;9.33;9.33;;;;;17.69;100.00;100993.03;4996938;28;45443;-70
2022/09/24 01:03:39;;;;;;;;;6.00;6.00;;;;;17.62;100.00;100977.97;5015007;28;60392;-71
2022/09/24 01:06:06;;;;;;;;;9.00;8.00;;;;;17.65;100.00;100988.63;4997551;28;47594;-73
2022/09/24 01:08:32;;;;;;;;;10.00;8.00;;;;;17.66;100.00;100990.38;4994762;28;45539;-73
2022/09/24 01:11:06;;;;;;;;;9.67;8.33;;;;;17.63;100.00;100988.66;5011886;28;49953;-71
2022/09/24 01:14:05;;;;;;;;;8.67;7.33;;;;;17.64;100.00;100989.53;5018739;28;45539;-72
2022/09/24 01:17:00;;;;;;;;;10.00;9.00;;;;;17.61;100.00;100990.47;5019130;28;46501;-70
2022/09/24 01:19:37;;;;;;;;;10.00;8.00;;;;;17.61;100.00;100987.78;5018694;28;45265;-70
2022/09/24 01:22:19;;;;;;;;;9.67;8.67;;;;;17.57;100.00;100986.06;5018807;28;45261;-71
2022/09/24 01:25:02;;;;;;;;;9.00;9.00;;;;;17.57;100.00;100990.53;4998484;28;45349;-71
2022/09/24 01:27:55;;;;;;;;;13.00;11.00;;;;;17.53;100.00;100984.38;5017361;28;46629;-72
2022/09/24 01:30:21;;;;;;;;;14.00;11.00;;;;;17.48;100.00;100978.22;5018632;28;45312;-71
2022/09/24 01:32:50;;;;;;;;;8.00;7.33;;;;;17.48;100.00;100988.88;5016816;28;63009;-71
2022/09/24 01:35:29;;;;;;;;;12.33;10.00;;;;;17.46;100.00;100980.00;5009559;28;45330;-73
2022/09/24 01:38:02;;;;;;;;;12.33;8.67;;;;;17.39;100.00;100973.00;5017603;28;47374;-72
2022/09/24 01:40:29;;;;;;;;;11.00;8.00;;;;;17.41;100.00;100982.72;5020059;28;45720;-71
2022/09/24 01:42:56;;;;;;;;;12.00;10.00;;;;;17.40;100.00;100975.63;5019911;28;45514;-71
2022/09/24 01:45:22;;;;;;;;;8.67;8.67;;;;;17.38;100.00;100965.91;5038135;28;45530;-71
2022/09/24 01:47:48;;;;;;;;;10.00;8.00;;;;;17.37;100.00;100967.69;5020299;28;69030;-71
2022/09/24 01:50:16;;;;;;;;;9.00;9.00;;;;;17.35;100.00;100972.16;5037235;28;45375;-72
2022/09/24 01:52:54;;;;;;;;;10.00;8.00;;;;;17.32;100.00;100960.66;5030545;28;45665;-70
2022/09/24 01:55:24;;;;;;;;;12.33;11.33;;;;;17.27;100.00;100953.59;5037854;28;45400;-71
2022/09/24 01:58:07;;;;;;;;;12.33;11.67;;;;;17.27;100.00;100942.03;5017228;28;46657;-71
2022/09/24 02:00:33;;;;;;;;;12.00;9.67;;;;;17.23;100.00;100946.53;5034770;28;45569;-72
2022/09/24 02:03:11;;;;;;;;;9.67;8.67;;;;;17.21;100.00;100935.00;5020417;28;45574;-72
2022/09/24 02:05:43;;;;;;;;;12.00;10.67;;;;;17.22;100.00;100939.44;5037235;28;45354;-72
2022/09/24 02:08:13;;;;;;;;;10.00;10.00;;;;;17.18;100.00;100926.16;5037527;28;45715;-73
2022/09/24 02:10:48;;;;;;;;;11.33;10.33;;;;;17.19;100.00;100933.25;5020409;28;45618;-70
2022/09/24 02:13:16;;;;;;;;;7.67;7.67;;;;;17.17;100.00;100932.41;5020096;28;45424;-71
2022/09/24 02:15:45;;;;;;;;;10.00;10.00;;;;;17.15;100.00;100937.78;5037167;28;45269;-72
2022/09/24 02:18:14;;;;;;;;;9.67;9.00;;;;;17.10;100.00;100930.72;5037964;28;46669;-71
2022/09/24 02:20:41;;;;;;;;;10.67;8.00;;;;;17.09;100.00;100927.16;5017312;28;45362;-71
2022/09/24 02:23:09;;;;;;;;;9.00;8.00;;;;;17.05;100.00;100927.25;5019147;28;45498;-71
2022/09/24 02:25:41;;;;;;;;;10.33;10.33;;;;;17.07;100.00;100930.78;5038249;28;46753;-72
2022/09/24 02:28:07;;;;;;;;;12.33;11.00;;;;;17.07;100.00;100934.31;5016768;28;46745;-72
2022/09/24 02:30:38;;;;;;;;;11.00;10.00;;;;;17.02;100.00;100920.16;5036244;28;45532;-71
2022/09/24 02:34:19;;;;;;;;;13.33;11.00;;;;;17.07;100.00;100926.31;5019686;28;45320;-70
2022/09/24 02:35:52;;;;;;;;;13.33;11.00;;;;;17.05;100.00;100916.59;5033794;28;45512;-72
2022/09/24 02:38:18;;;;;;;;;12.33;9.67;;;;;17.09;100.00;100926.28;5036346;28;47306;-71
2022/09/24 02:40:44;;;;;;;;;12.67;12.33;;;;;17.06;100.00;100927.22;5037845;28;45408;-71
2022/09/24 02:43:09;;;;;;;;;14.00;9.00;;;;;17.06;100.00;100919.22;5036597;28;45479;-71
2022/09/24 02:45:34;;;;;;;;;12.00;11.00;;;;;17.05;100.00;100916.59;5036724;28;53350;-72
2022/09/24 02:48:00;;;;;;;;;13.67;11.67;;;;;17.09;100.00;100928.94;5037083;28;64472;-71
2022/09/24 02:50:25;;;;;;;;;13.00;13.00;;;;;17.02;100.00;100915.69;5037011;28;45589;-73
2022/09/24 02:52:51;;;;;;;;;12.00;11.00;;;;;16.99;100.00;100905.09;5016118;28;45320;-72
2022/09/24 02:55:17;;;;;;;;;12.67;11.67;;;;;17.07;100.00;100918.31;5034280;28;45642;-71
2022/09/24 02:57:42;;;;;;;;;17.00;12.00;;;;;17.06;100.00;100908.53;5037270;28;46158;-73
2022/09/24 03:00:08;;;;;;;;;12.67;10.33;;;;;16.99;100.00;100905.09;5037600;28;62904;-73
2022/09/24 03:02:34;;;;;;;;;15.00;14.00;;;;;16.99;100.00;100905.09;5030855;28;45494;-70
2022/09/24 03:04:59;;;;;;;;;12.00;11.00;;;;;16.95;100.00;100903.38;5036941;28;45380;-71
2022/09/24 03:07:24;;;;;;;;;12.00;12.00;;;;;16.95;100.00;100902.50;5036316;28;65633;-71
2022/09/24 03:09:50;;;;;;;;;14.67;11.33;;;;;16.98;100.00;100913.09;5036506;28;59015;-72
2022/09/24 03:12:15;;;;;;;;;16.33;12.33;;;;;16.95;100.00;100899.81;5036381;28;51853;-73
2022/09/24 03:14:40;;;;;;;;;15.67;12.00;;;;;16.96;100.00;100906.91;5036594;28;61767;-71
2022/09/24 03:17:06;;;;;;;;;11.33;11.00;;;;;16.93;100.00;100898.94;5036832;28;61366;-72
2022/09/24 03:19:31;;;;;;;;;15.67;12.00;;;;;16.96;100.00;100910.47;5036092;28;66420;-71
2022/09/24 03:21:56;;;;;;;;;11.67;11.67;;;;;16.95;100.00;100907.81;5036030;28;57435;-71
2022/09/24 03:24:22;;;;;;;;;15.67;15.00;;;;;16.90;100.00;100891.88;5036872;28;45510;-70
2022/09/24 03:26:47;;;;;;;;;13.00;12.33;;;;;16.91;100.00;100892.75;5036492;28;53726;-71
2022/09/24 03:29:12;;;;;;;;;13.33;10.33;;;;;16.91;100.00;100885.63;5036646;28;45428;-71
2022/09/24 03:31:38;;;;;;;;;12.33;10.67;;;;;16.95;100.00;100894.47;5036153;28;45279;-72
2022/09/24 03:34:03;;;;;;;;;13.00;13.00;;;;;16.95;100.00;100895.38;5034307;28;60139;-70
2022/09/24 03:36:28;;;;;;;;;18.00;15.33;;;;;16.95;100.00;100892.69;5015100;28;69787;-73
2022/09/24 03:38:55;;;;;;;;;11.33;9.67;;;;;16.90;100.00;100883.88;5017050;28;45222;-71
2022/09/24 03:41:22;;;;;;;;;13.33;11.67;;;;;16.91;100.00;100882.97;5010838;28;45438;-73
2022/09/24 03:43:47;;;;;;;;;9.00;9.00;;;;;16.93;100.00;100881.16;5016650;28;45377;-71
2022/09/24 03:46:14;;;;;;;;;12.67;10.67;;;;;16.97;100.00;100890.00;5007063;28;45522;-71
2022/09/24 03:48:40;;;;;;;;;14.00;12.00;;;;;16.91;100.00;100880.28;5015397;28;45279;-72
2022/09/24 03:51:11;;;;;;;;;13.00;10.67;;;;;16.96;100.00;100886.44;5016678;28;45353;-72
2022/09/24 03:53:37;;;;;;;;;13.00;10.33;;;;;16.96;100.00;100882.91;5016426;28;45512;-71
2022/09/24 03:56:05;;;;;;;;;12.00;11.00;;;;;16.98;100.00;100881.97;4991114;28;46125;-72
2022/09/24 03:58:31;;;;;;;;;13.33;12.00;;;;;16.95;100.00;100875.81;4990636;28;45404;-72
2022/09/24 04:00:57;;;;;;;;;10.33;10.00;;;;;16.99;100.00;100886.41;5015999;28;45434;-71
2022/09/24 04:03:23;;;;;;;;;12.00;9.00;;;;;16.98;100.00;100884.63;5015927;28;45583;-71
2022/09/24 04:05:52;;;;;;;;;10.33;10.33;;;;;16.92;100.00;100873.19;5014780;28;47569;-72
2022/09/24 04:08:19;;;;;;;;;12.67;9.67;;;;;16.96;100.00;100881.13;5011866;28;45290;-71
2022/09/24 04:10:45;;;;;;;;;11.00;8.67;;;;;16.95;100.00;100875.81;5010122;28;45498;-73
2022/09/24 04:13:11;;;;;;;;;8.67;8.67;;;;;16.94;100.00;100876.72;5015272;28;45293;-71
2022/09/24 04:15:36;;;;;;;;;9.33;8.67;;;;;16.90;100.00;100867.00;5015639;28;45553;-73
2022/09/24 04:18:02;;;;;;;;;9.33;8.67;;;;;16.89;100.00;100868.78;5008148;28;45452;-71
2022/09/24 04:20:28;;;;;;;;;11.33;7.67;;;;;16.93;100.00;100875.81;5008193;28;45357;-71
2022/09/24 04:22:55;;;;;;;;;11.67;10.00;;;;;16.93;100.00;100874.94;5016336;28;45258;-72
2022/09/24 04:25:22;;;;;;;;;10.00;7.67;;;;;16.90;100.00;100867.00;5014272;28;46446;-72
2022/09/24 04:27:52;;;;;;;;;13.33;9.00;;;;;16.94;100.00;100879.38;5015425;28;45555;-72
2022/09/24 04:30:18;;;;;;;;;10.67;10.67;;;;;16.92;100.00;100875.84;5009538;28;45537;-71
2022/09/24 04:32:43;;;;;;;;;10.67;9.33;;;;;16.87;100.00;100867.91;5014644;28;57969;-72
2022/09/24 04:35:09;;;;;;;;;9.67;8.33;;;;;16.85;100.00;100874.19;5017874;28;45732;-72
2022/09/24 04:37:34;;;;;;;;;9.33;8.00;;;;;16.87;100.00;100878.56;5028065;28;45214;-72
2022/09/24 04:40:00;;;;;;;;;9.33;8.00;;;;;16.88;100.00;100876.78;5030323;28;45463;-71
2022/09/24 04:42:26;;;;;;;;;10.00;9.00;;;;;16.84;100.00;100872.41;5031950;28;46535;-72
2022/09/24 04:44:51;;;;;;;;;14.67;12.67;;;;;16.87;100.00;100878.56;5027174;28;46147;-71
2022/09/24 04:47:16;;;;;;;;;12.00;9.33;;;;;16.89;100.00;100882.13;5027894;28;45364;-72
2022/09/24 04:49:44;;;;;;;;;11.67;10.67;;;;;16.89;100.00;100884.78;5019590;28;57362;-72
2022/09/24 04:52:16;;;;;;;;;12.00;8.00;;;;;16.89;100.00;100883.91;5021514;28;45431;-71
2022/09/24 04:54:43;;;;;;;;;10.00;8.00;;;;;16.87;100.00;100877.69;5020252;28;46833;-72
2022/09/24 04:57:09;;;;;;;;;8.00;7.67;;;;;16.86;100.00;100882.16;5039068;28;45480;-73
2022/09/24 04:59:35;;;;;;;;;9.00;9.00;;;;;16.86;100.00;100878.59;5030439;28;45402;-71
2022/09/24 05:02:00;;;;;;;;;10.00;10.00;;;;;16.87;100.00;100883.03;5038236;28;63974;-71
2022/09/24 05:04:25;;;;;;;;;12.00;10.00;;;;;16.92;100.00;100882.06;5023465;28;73442;-71
2022/09/24 05:06:51;;;;;;;;;16.67;13.67;;;;;16.92;100.00;100886.50;5028623;28;49085;-71
2022/09/24 05:09:16;;;;;;;;;15.00;10.33;;;;;16.92;100.00;100881.19;5024688;28;45419;-71
2022/09/24 05:11:41;;;;;;;;;11.33;9.00;;;;;16.84;100.00;100870.63;5026978;28;58543;-73
2022/09/24 05:14:07;;;;;;;;;10.33;10.33;;;;;16.91;100.00;100884.75;5029528;28;64081;-72
2022/09/24 05:16:32;;;;;;;;;11.33;11.00;;;;;16.90;100.00;100888.34;5038184;28;45358;-72
2022/09/24 05:18:58;;;;;;;;;12.67;11.67;;;;;16.86;100.00;100886.59;5014299;28;45502;-71
2022/09/24 05:21:23;;;;;;;;;14.33;10.33;;;;;16.85;100.00;100891.06;5035516;28;45336;-72
2022/09/24 05:23:48;;;;;;;;;12.00;9.00;;;;;16.89;100.00;100897.25;5028576;28;46444;-72
2022/09/24 05:28:58;;;;;;;;;11.67;10.67;;;;;16.85;100.00;100892.84;5011368;28;45514;-71
2022/09/24 05:31:23;;;;;;;;;9.67;9.67;;;;;16.89;100.00;100899.91;5031496;28;59484;-73
2022/09/24 05:33:50;;;;;;;;;8.33;7.33;;;;;16.88;100.00;100892.78;5138480;22;67034;-71
2022/09/24 05:36:15;;;;;;;;;7.33;7.33;;;;;16.89;100.00;100902.56;5034465;28;46165;-71
2022/09/24 05:38:40;;;;;;;;;13.67;12.00;;;;;16.87;100.00;100899.03;5018383;28;45670;-70
2022/09/24 05:41:06;;;;;;;;;10.00;10.00;;;;;16.84;100.00;100893.75;5036605;28;62913;-72
2022/09/24 05:43:31;;;;;;;;;11.33;9.33;;;;;16.85;100.00;100900.84;5037216;28;46246;-72
2022/09/24 05:45:57;;;;;;;;;11.00;10.33;;;;;16.84;100.00;100896.44;5034022;28;55047;-72
2022/09/24 05:48:24;;;;;;;;;13.33;10.00;;;;;16.83;100.00;100898.22;5036094;28;45607;-71
2022/09/24 05:50:54;;;;;;;;;13.00;9.00;;;;;16.82;100.00;100896.41;5035392;28;45435;-73
2022/09/24 05:53:19;;;;;;;;;12.67;11.33;;;;;16.82;100.00;100891.09;5037704;28;46525;-74
2022/09/24 05:55:44;;;;;;;;;10.00;9.00;;;;;16.84;100.00;100893.75;5034596;28;63166;-72
2022/09/24 05:58:10;;;;;;;;;11.00;9.00;;;;;16.85;100.00;100904.41;5017194;28;45429;-73
2022/09/24 06:00:35;;;;;;;;;10.33;10.33;;;;;16.88;100.00;100899.00;5019486;28;57770;-70
2022/09/24 06:03:06;;;;;;;;;13.00;9.67;;;;;16.91;100.00;100914.09;5018585;28;46345;-71
2022/09/24 06:05:33;;;;;;;;;10.00;9.33;;;;;16.92;100.00;100914.06;5034296;28;45527;-72
2022/09/24 06:07:59;;;;;;;;;11.33;10.33;;;;;16.94;100.00;100914.06;5037850;28;45492;-71
2022/09/24 06:10:25;;;;;;;;;10.33;10.00;;;;;16.91;100.00;100911.44;5035219;28;45298;-72
2022/09/24 06:12:52;;;;;;;;;9.67;9.67;;;;;16.96;100.00;100918.47;5034483;28;46606;-72
2022/09/24 06:15:18;;;;;;;;;12.00;10.67;;;;;16.96;100.00;100922.91;5033445;28;45959;-71
2022/09/24 06:17:43;;;;;;;;;11.67;11.67;;;;;16.98;100.00;100923.75;5037872;28;45340;-71
2022/09/24 06:20:08;;;;;;;;;13.33;12.00;;;;;17.00;100.00;100927.31;4999952;28;45381;-73
2022/09/24 06:22:34;;;;;;;;;13.00;11.00;;;;;17.00;100.00;100922.84;5032002;28;60848;-72
2022/09/24 06:24:59;;;;;;;;;8.67;8.67;;;;;17.03;100.00;100922.78;5035702;28;62624;-74
2022/09/24 06:27:25;;;;;;;;;15.00;12.67;;;;;17.05;100.00;100927.25;5019993;28;45230;-73
2022/09/24 06:29:50;;;;;;;;;11.33;10.33;;;;;17.03;100.00;100924.59;5036799;28;45301;-75
2022/09/24 06:32:17;;;;;;;;;13.33;11.33;;;;;17.02;100.00;100920.16;5036322;28;69064;-73
2022/09/24 06:34:42;;;;;;;;;14.00;10.00;;;;;17.05;100.00;100925.47;5037072;28;45658;-72
2022/09/24 06:37:07;;;;;;;;;10.00;9.67;;;;;17.04;100.00;100926.34;5036159;28;45516;-72
2022/09/24 06:39:32;;;;;;;;;12.00;10.33;;;;;17.09;100.00;100937.84;5036375;28;56768;-74
2022/09/24 06:41:58;;;;;;;;;15.00;12.67;;;;;17.12;100.00;100928.91;5032848;28;64716;-72
2022/09/24 06:44:23;;;;;;;;;8.67;8.67;;;;;17.13;100.00;100934.22;5035627;28;65151;-72
2022/09/24 06:46:49;;;;;;;;;9.00;8.00;;;;;17.08;100.00;100930.75;5036427;28;45288;-71
2022/09/24 06:49:15;;;;;;;;;12.33;11.00;;;;;17.12;100.00;100932.47;5035637;28;60013;-74
2022/09/24 06:51:40;;;;;;;;;14.00;11.00;;;;;17.13;100.00;100939.56;5035696;28;67655;-73
2022/09/24 06:54:05;;;;;;;;;9.00;7.67;;;;;17.16;100.00;100942.19;5034665;28;45415;-72
2022/09/24 06:56:31;;;;;;;;;8.00;8.00;;;;;17.14;100.00;100932.44;5032614;28;45765;-76
2022/09/24 06:58:56;;;;;;;;;10.33;9.67;;;;;17.18;100.00;100947.50;5010441;28;55442;-74
2022/09/24 07:01:21;;;;;;;;;10.67;9.00;;;;;17.20;100.00;100949.22;5029277;28;70576;-72
2022/09/24 07:03:47;;;;;;;;;8.67;7.00;;;;;17.19;100.00;100936.81;5030897;28;45585;-71
2022/09/24 07:06:12;;;;;;;;;9.00;9.00;;;;;17.11;100.00;100930.72;5032249;28;59096;-72
2022/09/24 07:08:38;;;;;;;;;9.00;9.00;;;;;17.24;100.00;100947.41;5032400;28;45538;-73
2022/09/24 07:11:03;;;;;;;;;9.00;8.00;;;;;17.25;100.00;100950.03;5033951;28;45626;-71
2022/09/24 07:13:28;;;;;;;;;8.00;8.00;;;;;17.27;100.00;100947.38;5036326;28;45336;-70
2022/09/24 07:15:54;;;;;;;;;12.00;10.00;;;;;17.31;100.00;100948.19;5035785;28;45150;-71
2022/09/24 07:18:19;;;;;;;;;9.00;9.00;;;;;17.29;100.00;100950.91;5034914;28;45640;-72
2022/09/24 07:20:53;;;;;;;;;11.00;10.33;;;;;17.31;100.00;100945.53;5029341;28;46330;-71
2022/09/24 07:23:20;;;;;;;;;11.67;9.00;;;;;17.32;100.00;100945.53;5035078;28;45483;-73
2022/09/24 07:25:45;;;;;;;;;10.00;9.00;;;;;17.38;100.00;100952.56;5036439;28;45252;-73
2022/09/24 07:28:14;;;;;;;;;7.00;4.67;;;;;17.43;100.00;100956.03;5034860;28;45463;-74
2022/09/24 07:30:40;;;;;;;;;11.00;11.00;;;;;17.44;100.00;100949.78;5034250;28;46468;-70
2022/09/24 07:33:09;;;;;;;;;9.33;9.33;;;;;17.42;100.00;100951.63;5032936;28;45488;-72
2022/09/24 07:35:36;;;;;;;;;10.00;9.00;;;;;17.47;100.00;100963.97;5027831;28;45467;-71
2022/09/24 07:38:05;;;;;;;;;11.33;11.33;;;;;17.45;100.00;100955.09;5033855;28;45372;-73
2022/09/24 07:40:31;;;;;;;;;7.00;7.00;;;;;17.51;100.00;100956.78;5035048;28;45814;-72
2022/09/24 07:42:57;;;;;;;;;9.00;6.00;;;;;17.49;100.00;100951.47;5033508;28;45463;-71
2022/09/24 07:45:24;;;;;;;;;7.67;6.67;;;;;17.57;100.00;100970.03;5034955;28;45497;-72
2022/09/24 07:48:00;;;;;;;;;8.33;7.33;;;;;17.54;100.00;100962.97;5035357;28;45356;-73
2022/09/24 07:50:27;;;;;;;;;8.00;6.00;;;;;17.60;100.00;100975.34;5034588;28;45555;-71
2022/09/24 07:52:52;;;;;;;;;8.00;8.00;;;;;17.48;100.00;100954.19;5035140;28;45589;-71
2022/09/24 07:55:18;;;;;;;;;8.00;6.67;;;;;17.61;100.00;100962.88;5035905;28;51816;-73
2022/09/24 07:57:51;;;;;;;;;6.00;6.00;;;;;17.66;100.00;100979.72;5035907;28;45478;-72
2022/09/24 08:00:17;;;;;;;;;5.00;5.00;;;;;17.65;100.00;100978.81;5035913;28;46593;-71
2022/09/24 08:02:46;;;;;;;;;6.00;6.00;;;;;17.69;100.00;100975.22;5034959;28;45903;-73
2022/09/24 08:05:14;;;;;;;;;7.00;6.00;;;;;17.72;100.00;100979.59;5035863;28;45546;-72
2022/09/24 08:07:40;;;;;;;;;7.67;6.00;;;;;17.74;100.00;100978.72;5036479;28;45209;-72
2022/09/24 08:10:05;;;;;;;;;6.33;5.00;;;;;17.76;100.00;100979.56;5035905;28;46595;-69
2022/09/24 08:12:31;;;;;;;;;6.00;6.00;;;;;17.80;100.00;100994.66;5034720;28;45218;-72
2022/09/24 08:14:56;;;;;;;;;8.67;6.00;;;;;17.80;100.00;100983.09;5036358;28;45586;-71
2022/09/24 08:17:22;;;;;;;;;8.67;8.00;;;;;17.84;100.00;100983.88;5034865;28;62402;-71
2022/09/24 08:19:47;;;;;;;;;9.00;8.00;;;;;17.89;100.00;100987.38;5019167;28;45629;-72
2022/09/24 08:22:13;;;;;;;;;8.00;7.33;;;;;17.92;100.00;100987.34;5036045;28;45344;-72
2022/09/24 08:24:39;;;;;;;;;7.33;5.67;;;;;17.97;100.00;100982.78;5034412;28;58711;-72
2022/09/24 08:27:04;;;;;;;;;9.00;9.00;;;;;18.01;100.00;100980.06;5036230;28;45591;-72
2022/09/24 08:29:29;;;;;;;;;7.67;7.00;;;;;18.12;100.00;100989.66;5033458;28;68437;-71
2022/09/24 08:31:55;;;;;;;;;9.67;6.00;;;;;18.18;100.00;100993.13;5035004;28;63472;-71
2022/09/24 08:34:20;;;;;;;;;8.00;6.67;;;;;18.19;100.00;100983.31;5035221;28;61103;-71
2022/09/24 08:36:45;;;;;;;;;9.33;7.00;;;;;18.27;100.00;100995.63;5031733;28;59001;-71
2022/09/24 08:39:12;;;;;;;;;7.67;7.67;;;;;18.33;100.00;100999.97;5024850;28;67367;-71
2022/09/24 08:41:53;;;;;;;;;8.00;8.00;;;;;18.39;100.00;100996.31;5019444;28;45553;-71
2022/09/24 08:47:21;;;;;;;;;10.33;8.00;;;;;18.40;100.00;100992.72;5036238;28;45357;-72
2022/09/24 08:47:24;;;;;;;;;9.00;7.00;;;;;18.46;100.00;100998.81;5036213;28;45556;-73
2022/09/24 08:50:30;;;;;;;;;8.67;7.00;;;;;18.55;100.00;101005.81;5025476;28;45699;-73
2022/09/24 08:52:59;;;;;;;;;11.00;7.33;;;;;18.63;100.00;101008.31;5022773;28;45588;-71
2022/09/24 08:55:36;;;;;;;;;9.00;9.00;;;;;18.66;100.00;100998.44;5026816;28;46161;-72
2022/09/24 08:58:42;;;;;;;;;10.00;8.67;;;;;18.74;100.00;101009.03;5032600;28;45357;-73
2022/09/24 09:01:11;;;;;;;;;10.33;8.00;;;;;18.78;100.00;101006.25;4996418;28;46301;-71
2022/09/24 09:03:55;;;;;;;;;8.67;8.00;;;;;18.83;100.00;101009.72;5034878;28;45265;-71
2022/09/24 09:06:44;;;;;;;;;10.00;9.00;;;;;18.90;100.00;101009.59;5023753;28;45297;-72
2022/09/24 09:09:37;;;;;;;;;11.00;10.00;;;;;18.94;100.00;101006.81;5031171;28;45511;-72
2022/09/24 09:12:10;;;;;;;;;12.00;9.00;;;;;18.97;100.00;101004.09;5010334;28;46239;-72
2022/09/24 09:14:35;;;;;;;;;9.00;8.00;;;;;19.04;100.00;101010.19;5012098;28;45580;-72
2022/09/24 09:17:05;;;;;;;;;9.00;8.00;;;;;19.05;100.00;101002.13;5035364;28;45531;-72
2022/09/24 09:19:34;;;;;;;;;12.67;11.67;;;;;19.17;100.00;101006.34;5035002;28;45531;-70
2022/09/24 09:22:27;;;;;;;;;11.00;10.00;;;;;19.25;100.00;101004.38;5021252;28;46516;-73
2022/09/24 09:24:58;;;;;;;;;12.33;8.00;;;;;19.25;100.00;100999.03;5006674;28;45381;-72
2022/09/24 09:27:24;;;;;;;;;10.00;10.00;;;;;19.24;100.00;100999.94;5025984;28;45409;-71
2022/09/24 09:29:58;;;;;;;;;9.67;9.33;;;;;19.30;100.00;101001.59;5031506;28;45363;-72
2022/09/24 09:33:00;;;;;;;;;13.67;12.33;;;;;19.41;100.00;101012.97;5026154;28;46696;-71
2022/09/24 09:35:37;;;;;;;;;12.00;11.00;;;;;19.42;100.00;101008.47;4976264;28;45362;-71
2022/09/24 09:38:24;;;;;;;;;12.33;10.33;;;;;19.48;100.00;101016.38;5036917;28;45526;-72
2022/09/24 09:40:56;;;;;;;;;12.00;10.00;;;;;19.43;100.00;101010.22;5020267;28;45364;-74
2022/09/24 09:43:21;;;;;;;;;13.00;9.33;;;;;19.45;100.00;101022.69;5037519;28;46547;-72
2022/09/24 09:46:12;;;;;;;;;14.67;11.67;;;;;19.41;100.00;101010.28;5036747;28;63048;-72
2022/09/24 09:48:46;;;;;;;;;11.67;10.33;;;;;19.42;100.00;101003.13;5019725;28;45506;-72
2022/09/24 09:51:24;;;;;;;;;10.67;10.67;;;;;19.48;100.00;101013.69;5037652;28;45507;-73
2022/09/24 09:54:01;;;;;;;;;12.00;11.00;;;;;19.48;100.00;101009.22;5030615;28;45709;-70
2022/09/24 09:56:33;;;;;;;;;12.67;9.00;;;;;19.53;100.00;101018.03;5037640;28;45314;-72
2022/09/24 09:59:10;;;;;;;;;9.00;8.33;;;;;19.58;100.00;101017.91;5020101;28;45833;-71
2022/09/24 10:01:41;;;;;;;;;9.33;8.33;;;;;19.61;100.00;101016.09;5035497;28;45471;-71
2022/09/24 10:04:34;;;;;;;;;11.00;8.00;;;;;19.64;100.00;100999.06;5035925;28;45751;-73
2022/09/24 10:07:11;;;;;;;;;11.33;10.67;;;;;19.67;100.00;101000.81;5037717;28;45515;-71
2022/09/24 10:09:38;;;;;;;;;10.33;10.00;;;;;19.71;100.00;101008.72;5036468;28;45348;-71
2022/09/24 10:12:17;;;;;;;;;13.00;11.33;;;;;19.73;100.00;101014.03;5038376;28;45545;-71
2022/09/24 10:14:43;;;;;;;;;13.33;11.67;;;;;19.76;100.00;101008.59;5037494;28;46305;-71
2022/09/24 10:17:13;;;;;;;;;12.67;11.67;;;;;19.79;100.00;101014.78;5037721;28;45498;-72
2022/09/24 10:19:39;;;;;;;;;11.00;10.67;;;;;19.78;100.00;101012.13;5036182;28;45344;-73
2022/09/24 10:22:13;;;;;;;;;9.67;9.67;;;;;19.85;100.00;101013.75;5035514;28;62829;-72
2022/09/24 10:24:41;;;;;;;;;13.33;13.33;;;;;19.81;100.00;101004.00;5019043;28;46639;-73
2022/09/24 10:27:29;;;;;;;;;11.33;10.67;;;;;19.84;100.00;101018.22;5036360;28;45460;-72
2022/09/24 10:32:40;;;;;;;;;10.67;9.67;;;;;19.83;100.00;101003.06;5036596;28;45487;-72
2022/09/24 10:35:25;;;;;;;;;14.00;10.67;;;;;19.90;100.00;101003.78;5019258;28;45755;-74
2022/09/24 10:37:58;;;;;;;;;13.33;10.00;;;;;19.94;100.00;100991.22;5037537;28;45221;-72
2022/09/24 10:40:29;;;;;;;;;13.00;13.00;;;;;20.08;100.00;101008.72;5037657;28;45401;-71
2022/09/24 10:42:57;;;;;;;;;13.00;10.67;;;;;20.15;100.00;101002.25;5036604;28;45565;-72
2022/09/24 10:45:28;;;;;;;;;12.33;12.33;;;;;20.18;100.00;101003.97;5037379;28;47349;-72
2022/09/24 10:48:16;;;;;;;;;14.67;13.00;;;;;20.16;100.00;100997.78;5037467;28;45324;-72
2022/09/24 10:50:43;;;;;;;;;12.00;11.00;;;;;20.21;100.00;101000.34;5037078;28;45478;-72
2022/09/24 10:53:50;;;;;;;;;14.67;11.00;;;;;20.23;100.00;101004.72;5037386;28;45229;-71
2022/09/24 10:56:15;;;;;;;;;15.33;13.33;;;;;20.25;100.00;101004.72;5035801;28;45840;-71
2022/09/24 10:59:19;;;;;;;;;15.67;13.67;;;;;20.28;100.00;101007.28;5036499;28;45436;-72
2022/09/24 11:02:03;;;;;;;;;13.00;10.67;;;;;20.32;100.00;100996.44;5037447;28;45208;-73
2022/09/24 11:04:38;;;;;;;;;12.33;12.00;;;;;20.35;100.00;100999.06;5036898;28;45280;-71
2022/09/24 11:07:41;;;;;;;;;12.67;12.67;;;;;20.25;100.00;101000.22;5037122;28;45593;-72
2022/09/24 11:10:26;;;;;;;;;15.33;13.67;;;;;20.19;100.00;101002.16;5015004;28;45444;-71
2022/09/24 11:13:00;;;;;;;;;14.00;13.00;;;;;20.20;100.00;101002.16;5031192;28;45494;-71
2022/09/24 11:15:39;;;;;;;;;12.33;11.00;;;;;20.24;100.00;101006.50;5035596;28;45477;-71
2022/09/24 11:18:09;;;;;;;;;14.33;12.67;;;;;20.26;100.00;101006.47;5016132;28;47284;-73
2022/09/24 11:20:41;;;;;;;;;14.67;14.00;;;;;20.24;100.00;101002.91;5017623;28;45432;-71
2022/09/24 11:23:15;;;;;;;;;12.00;12.00;;;;;20.30;100.00;101006.34;5019142;28;45465;-71
2022/09/24 11:25:56;;;;;;;;;14.00;13.00;;;;;20.33;100.00;100997.31;5036448;28;45524;-73
2022/09/24 11:28:55;;;;;;;;;15.00;13.67;;;;;20.42;100.00;101006.00;5036589;28;47125;-72
2022/09/24 11:31:47;;;;;;;;;15.33;13.67;;;;;20.48;100.00;100996.06;5036783;28;45566;-71